PWSweather.com
Personal Weather Stations
Station Observations
KMIEASTT1
Tawas Bay, East Tawas, MI 48730

Tawas BayEast Tawas, MI 48730

Lat: 44.28, Lon: -83.48

Elevation: 600

Station Type: Davis VantagePro

http://www.tawasbayweather.com

High Low Average
Temperature 56.3°F13.5°C 44.9°F7.2°C 50.8°F10.4°C
Dew Point 49.5°F9.7°C 43.1°F6.2°C 46.2°F7.9°C
Winds 8.0 mph 12.9 kmh Calm Calm 3.0 mph WNW4.8 kmh WNW
Wind Gusts 11.0 mph17.7 kmh -- 6.0 mph9.7 kmh
Humidity 97% 63% 85%
Pressure 29.82 in1009.8 mb 29.76 in1007.8 mb -
Precipitation 0.00 in0.0 mm - -
Hour Temp Dew Point Humidity Winds Wind Gusts Pressure Precip Precip Rate Daily Precip Total
12:00 AM 49.5°F9.7°C 47.9°F8.8°C 94% Calm Calm -- 29.79 in1008.8 mb 0.00 in0.0 mm 0.00 in/hr0.0 mm/hr 0.00 in0.0 mm
12:15 AM 49.4°F9.7°C 48.0°F8.9°C 95% 1.0 mph N1.6 kmh N 1.0 mph1.6 kmh 29.78 in1008.5 mb 0.00 in0.0 mm 0.00 in/hr0.0 mm/hr 0.00 in0.0 mm
12:30 AM 48.7°F9.3°C 46.8°F8.2°C 93% Calm Calm 1.0 mph1.6 kmh 29.78 in1008.5 mb 0.00 in0.0 mm 0.00 in/hr0.0 mm/hr 0.00 in0.0 mm
12:45 AM 47.8°F8.8°C 46.2°F7.9°C 94% Calm Calm -- 29.78 in1008.5 mb 0.00 in0.0 mm 0.00 in/hr0.0 mm/hr 0.00 in0.0 mm
01:00 AM 47.2°F8.4°C 45.6°F7.6°C 94% 1.0 mph N1.6 kmh N 2.0 mph3.2 kmh 29.79 in1008.8 mb 0.00 in0.0 mm 0.00 in/hr0.0 mm/hr 0.00 in0.0 mm
01:15 AM 46.9°F8.3°C 45.6°F7.6°C 95% 1.0 mph N1.6 kmh N 2.0 mph3.2 kmh 29.79 in1008.8 mb 0.00 in0.0 mm 0.00 in/hr0.0 mm/hr 0.00 in0.0 mm
01:30 AM 47.6°F8.7°C 46.5°F8.1°C 96% 1.0 mph N1.6 kmh N 2.0 mph3.2 kmh 29.78 in1008.5 mb 0.00 in0.0 mm 0.00 in/hr0.0 mm/hr 0.00 in0.0 mm
01:45 AM 46.8°F8.2°C 45.5°F7.5°C 95% Calm Calm -- 29.79 in1008.8 mb 0.00 in0.0 mm 0.00 in/hr0.0 mm/hr 0.00 in0.0 mm
02:00 AM 46.6°F8.1°C 45.5°F7.5°C 96% 2.0 mph NW3.2 kmh NW 3.0 mph4.8 kmh 29.79 in1008.8 mb 0.00 in0.0 mm 0.00 in/hr0.0 mm/hr 0.00 in0.0 mm
02:15 AM 46.1°F7.8°C 45.0°F7.2°C 96% 1.0 mph NW1.6 kmh NW 2.0 mph3.2 kmh 29.78 in1008.5 mb 0.00 in0.0 mm 0.00 in/hr0.0 mm/hr 0.00 in0.0 mm
02:30 AM 46.3°F7.9°C 45.2°F7.3°C 96% 1.0 mph WNW1.6 kmh WNW 3.0 mph4.8 kmh 29.78 in1008.5 mb 0.00 in0.0 mm 0.00 in/hr0.0 mm/hr 0.00 in0.0 mm
02:45 AM 47.2°F8.4°C 46.4°F8.0°C 97% Calm Calm 2.0 mph3.2 kmh 29.78 in1008.5 mb 0.00 in0.0 mm 0.00 in/hr0.0 mm/hr 0.00 in0.0 mm
03:00 AM 47.7°F8.7°C 46.6°F8.1°C 96% Calm Calm 3.0 mph4.8 kmh 29.77 in1008.1 mb 0.00 in0.0 mm 0.00 in/hr0.0 mm/hr 0.00 in0.0 mm
03:15 AM 47.5°F8.6°C 46.4°F8.0°C 96% Calm Calm 2.0 mph3.2 kmh 29.77 in1008.1 mb 0.00 in0.0 mm 0.00 in/hr0.0 mm/hr 0.00 in0.0 mm
03:30 AM 47.5°F8.6°C 46.4°F8.0°C 96% 1.0 mph WSW1.6 kmh WSW 2.0 mph3.2 kmh 29.76 in1007.8 mb 0.00 in0.0 mm 0.00 in/hr0.0 mm/hr 0.00 in0.0 mm
03:45 AM 46.7°F8.2°C 45.4°F7.4°C 95% 1.0 mph WSW1.6 kmh WSW 2.0 mph3.2 kmh 29.76 in1007.8 mb 0.00 in0.0 mm 0.00 in/hr0.0 mm/hr 0.00 in0.0 mm
04:00 AM 45.6°F7.6°C 44.3°F6.8°C 95% 3.0 mph WNW4.8 kmh WNW 3.0 mph4.8 kmh 29.76 in1007.8 mb 0.00 in0.0 mm 0.00 in/hr0.0 mm/hr 0.00 in0.0 mm
04:15 AM 45.3°F7.4°C 44.2°F6.8°C 96% 2.0 mph NW3.2 kmh NW 4.0 mph6.4 kmh 29.76 in1007.8 mb 0.00 in0.0 mm 0.00 in/hr0.0 mm/hr 0.00 in0.0 mm
04:30 AM 45.6°F7.6°C 44.5°F6.9°C 96% 2.0 mph NW3.2 kmh NW 3.0 mph4.8 kmh 29.76 in1007.8 mb 0.00 in0.0 mm 0.00 in/hr0.0 mm/hr 0.00 in0.0 mm
04:45 AM 45.6°F7.6°C 44.5°F6.9°C 96% 2.0 mph NW3.2 kmh NW 3.0 mph4.8 kmh 29.76 in1007.8 mb 0.00 in0.0 mm 0.00 in/hr0.0 mm/hr 0.00 in0.0 mm
05:00 AM 45.4°F7.4°C 44.3°F6.8°C 96% 2.0 mph NW3.2 kmh NW 2.0 mph3.2 kmh 29.76 in1007.8 mb 0.00 in0.0 mm 0.00 in/hr0.0 mm/hr 0.00 in0.0 mm
05:15 AM 45.2°F7.3°C 44.1°F6.7°C 96% Calm Calm 2.0 mph3.2 kmh 29.76 in1007.8 mb 0.00 in0.0 mm 0.00 in/hr0.0 mm/hr 0.00 in0.0 mm
05:30 AM 45.3°F7.4°C 44.5°F6.9°C 97% 2.0 mph NNW3.2 kmh NNW 5.0 mph8.0 kmh 29.77 in1008.1 mb 0.00 in0.0 mm 0.00 in/hr0.0 mm/hr 0.00 in0.0 mm
05:45 AM 44.9°F7.2°C 43.8°F6.6°C 96% 4.0 mph NW6.4 kmh NW 6.0 mph9.7 kmh 29.77 in1008.1 mb 0.00 in0.0 mm 0.00 in/hr0.0 mm/hr 0.00 in0.0 mm
06:00 AM 45.1°F7.3°C 44.3°F6.8°C 97% 2.0 mph NW3.2 kmh NW 6.0 mph9.7 kmh 29.77 in1008.1 mb 0.00 in0.0 mm 0.00 in/hr0.0 mm/hr 0.00 in0.0 mm
06:15 AM 45.5°F7.5°C 44.7°F7.1°C 97% 3.0 mph NW4.8 kmh NW 3.0 mph4.8 kmh 29.77 in1008.1 mb 0.00 in0.0 mm 0.00 in/hr0.0 mm/hr 0.00 in0.0 mm
06:30 AM 45.8°F7.7°C 45.0°F7.2°C 97% 1.0 mph WNW1.6 kmh WNW 4.0 mph6.4 kmh 29.77 in1008.1 mb 0.00 in0.0 mm 0.00 in/hr0.0 mm/hr 0.00 in0.0 mm
06:45 AM 46.1°F7.8°C 45.3°F7.4°C 97% 2.0 mph WNW3.2 kmh WNW 3.0 mph4.8 kmh 29.77 in1008.1 mb 0.00 in0.0 mm 0.00 in/hr0.0 mm/hr 0.00 in0.0 mm
07:00 AM 46.5°F8.1°C 45.7°F7.6°C 97% 2.0 mph NW3.2 kmh NW 3.0 mph4.8 kmh 29.77 in1008.1 mb 0.00 in0.0 mm 0.00 in/hr0.0 mm/hr 0.00 in0.0 mm
07:15 AM 46.9°F8.3°C 46.1°F7.8°C 97% Calm Calm 3.0 mph4.8 kmh 29.78 in1008.5 mb 0.00 in0.0 mm 0.00 in/hr0.0 mm/hr 0.00 in0.0 mm
07:30 AM 47.2°F8.4°C 46.1°F7.8°C 96% 2.0 mph NW3.2 kmh NW 3.0 mph4.8 kmh 29.78 in1008.5 mb 0.00 in0.0 mm 0.00 in/hr0.0 mm/hr 0.00 in0.0 mm
07:45 AM 47.7°F8.7°C 46.6°F8.1°C 96% 1.0 mph NW1.6 kmh NW 3.0 mph4.8 kmh 29.78 in1008.5 mb 0.00 in0.0 mm 0.00 in/hr0.0 mm/hr 0.00 in0.0 mm
08:00 AM 48.7°F9.3°C 47.3°F8.5°C 95% 3.0 mph NW4.8 kmh NW 4.0 mph6.4 kmh 29.78 in1008.5 mb 0.00 in0.0 mm 0.00 in/hr0.0 mm/hr 0.00 in0.0 mm
08:15 AM 49.2°F9.6°C 47.6°F8.7°C 94% 2.0 mph NNW3.2 kmh NNW 4.0 mph6.4 kmh 29.78 in1008.5 mb 0.00 in0.0 mm 0.00 in/hr0.0 mm/hr 0.00 in0.0 mm
08:30 AM 50.0°F10.0°C 48.1°F8.9°C 93% 2.0 mph N3.2 kmh N 5.0 mph8.0 kmh 29.77 in1008.1 mb 0.00 in0.0 mm 0.00 in/hr0.0 mm/hr 0.00 in0.0 mm
08:45 AM 51.4°F10.8°C 49.2°F9.6°C 92% 3.0 mph WNW4.8 kmh WNW 6.0 mph9.7 kmh 29.78 in1008.5 mb 0.00 in0.0 mm 0.00 in/hr0.0 mm/hr 0.00 in0.0 mm
09:00 AM 51.2°F10.7°C 48.4°F9.1°C 90% 7.0 mph NW11.3 kmh NW 9.0 mph14.5 kmh 29.78 in1008.5 mb 0.00 in0.0 mm 0.00 in/hr0.0 mm/hr 0.00 in0.0 mm
09:15 AM 51.2°F10.7°C 48.1°F8.9°C 89% 2.0 mph NNE3.2 kmh NNE 8.0 mph12.9 kmh 29.78 in1008.5 mb 0.00 in0.0 mm 0.00 in/hr0.0 mm/hr 0.00 in0.0 mm
09:30 AM 50.5°F10.3°C 48.6°F9.2°C 93% 3.0 mph NW4.8 kmh NW 5.0 mph8.0 kmh 29.78 in1008.5 mb 0.01 in0.3 mm 0.04 in/hr1.0 mm/hr 0.01 in0.3 mm
09:45 AM 50.1°F10.1°C 48.4°F9.1°C 94% 1.0 mph NW1.6 kmh NW 4.0 mph6.4 kmh 29.78 in1008.5 mb 0.02 in0.5 mm 0.04 in/hr1.0 mm/hr 0.02 in0.5 mm
10:00 AM 50.6°F10.3°C 49.2°F9.6°C 95% 4.0 mph W6.4 kmh W 5.0 mph8.0 kmh 29.78 in1008.5 mb 0.02 in0.5 mm 0.00 in/hr0.0 mm/hr 0.02 in0.5 mm
10:15 AM 50.5°F10.3°C 48.6°F9.2°C 93% 3.0 mph NNW4.8 kmh NNW 6.0 mph9.7 kmh 29.79 in1008.8 mb 0.04 in1.0 mm 0.08 in/hr2.0 mm/hr 0.04 in1.0 mm
10:30 AM 51.7°F10.9°C 49.5°F9.7°C 92% 4.0 mph NW6.4 kmh NW 7.0 mph11.3 kmh 29.79 in1008.8 mb 0.04 in1.0 mm 0.00 in/hr0.0 mm/hr 0.04 in1.0 mm
10:45 AM 52.3°F11.3°C 49.5°F9.7°C 90% 4.0 mph NW6.4 kmh NW 8.0 mph12.9 kmh 29.79 in1008.8 mb 0.03 in0.8 mm 0.00 in/hr0.0 mm/hr 0.04 in1.0 mm
11:00 AM 52.3°F11.3°C 48.2°F9.0°C 86% 2.0 mph NNW3.2 kmh NNW 11.0 mph17.7 kmh 29.79 in1008.8 mb 0.03 in0.8 mm 0.00 in/hr0.0 mm/hr 0.04 in1.0 mm
11:15 AM 52.2°F11.2°C 48.2°F9.0°C 86% 2.0 mph NW3.2 kmh NW 6.0 mph9.7 kmh 29.80 in1009.1 mb 0.02 in0.5 mm 0.00 in/hr0.0 mm/hr 0.04 in1.0 mm
11:30 AM 52.2°F11.2°C 48.2°F9.0°C 86% 3.0 mph NW4.8 kmh NW 7.0 mph11.3 kmh 29.80 in1009.1 mb 0.02 in0.5 mm 0.00 in/hr0.0 mm/hr 0.04 in1.0 mm
11:45 AM 51.8°F11.0°C 48.1°F8.9°C 87% 4.0 mph NW6.4 kmh NW 5.0 mph8.0 kmh 29.81 in1009.5 mb 0.00 in0.0 mm 0.00 in/hr0.0 mm/hr 0.04 in1.0 mm
12:00 PM 52.1°F11.2°C 48.1°F8.9°C 86% 6.0 mph WNW9.7 kmh WNW 10.0 mph16.1 kmh 29.80 in1009.1 mb 0.00 in0.0 mm 0.00 in/hr0.0 mm/hr 0.04 in1.0 mm
12:15 PM 52.7°F11.5°C 48.3°F9.1°C 85% 8.0 mph WNW12.9 kmh WNW 8.0 mph12.9 kmh 29.80 in1009.1 mb 0.00 in0.0 mm 0.00 in/hr0.0 mm/hr 0.04 in1.0 mm
12:30 PM 53.6°F12.0°C 48.6°F9.2°C 83% 4.0 mph WNW6.4 kmh WNW 8.0 mph12.9 kmh 29.80 in1009.1 mb 0.00 in0.0 mm 0.00 in/hr0.0 mm/hr 0.04 in1.0 mm
12:45 PM 53.8°F12.1°C 48.4°F9.1°C 82% 4.0 mph NW6.4 kmh NW 6.0 mph9.7 kmh 29.80 in1009.1 mb 0.00 in0.0 mm 0.00 in/hr0.0 mm/hr 0.04 in1.0 mm
01:00 PM 53.7°F12.1°C 47.0°F8.3°C 78% 4.0 mph NNW6.4 kmh NNW 9.0 mph14.5 kmh 29.80 in1009.1 mb 0.00 in0.0 mm 0.00 in/hr0.0 mm/hr 0.04 in1.0 mm
01:15 PM 53.8°F12.1°C 47.5°F8.6°C 79% 2.0 mph NW3.2 kmh NW 8.0 mph12.9 kmh 29.80 in1009.1 mb 0.00 in0.0 mm 0.00 in/hr0.0 mm/hr 0.04 in1.0 mm
01:30 PM 54.8°F12.7°C 47.7°F8.7°C 77% 4.0 mph NW6.4 kmh NW 8.0 mph12.9 kmh 29.80 in1009.1 mb 0.00 in0.0 mm 0.00 in/hr0.0 mm/hr 0.04 in1.0 mm
01:45 PM 55.8°F13.2°C 47.3°F8.5°C 73% 4.0 mph NNE6.4 kmh NNE 9.0 mph14.5 kmh 29.80 in1009.1 mb 0.00 in0.0 mm 0.00 in/hr0.0 mm/hr 0.04 in1.0 mm
02:00 PM 55.2°F12.9°C 47.1°F8.4°C 74% 2.0 mph NE3.2 kmh NE 11.0 mph17.7 kmh 29.81 in1009.5 mb 0.00 in0.0 mm 0.00 in/hr0.0 mm/hr 0.04 in1.0 mm
02:15 PM 56.3°F13.5°C 48.1°F8.9°C 74% 2.0 mph NE3.2 kmh NE 6.0 mph9.7 kmh 29.81 in1009.5 mb 0.00 in0.0 mm 0.00 in/hr0.0 mm/hr 0.04 in1.0 mm
02:30 PM 54.9°F12.7°C 46.8°F8.2°C 74% 3.0 mph NNW4.8 kmh NNW 9.0 mph14.5 kmh 29.81 in1009.5 mb 0.00 in0.0 mm 0.00 in/hr0.0 mm/hr 0.04 in1.0 mm
02:45 PM 55.2°F12.9°C 46.7°F8.2°C 73% 5.0 mph N8.0 kmh N 8.0 mph12.9 kmh 29.81 in1009.5 mb 0.00 in0.0 mm 0.00 in/hr0.0 mm/hr 0.04 in1.0 mm
03:00 PM 55.1°F12.8°C 45.9°F7.7°C 71% 6.0 mph NNW9.7 kmh NNW 11.0 mph17.7 kmh 29.81 in1009.5 mb 0.00 in0.0 mm 0.00 in/hr0.0 mm/hr 0.04 in1.0 mm
03:15 PM 54.8°F12.7°C 46.0°F7.8°C 72% 4.0 mph NW6.4 kmh NW 10.0 mph16.1 kmh 29.81 in1009.5 mb 0.00 in0.0 mm 0.00 in/hr0.0 mm/hr 0.04 in1.0 mm
03:30 PM 54.8°F12.7°C 46.0°F7.8°C 72% 1.0 mph NNW1.6 kmh NNW 5.0 mph8.0 kmh 29.81 in1009.5 mb 0.00 in0.0 mm 0.00 in/hr0.0 mm/hr 0.04 in1.0 mm
03:45 PM 53.9°F12.2°C 45.5°F7.5°C 73% 4.0 mph NW6.4 kmh NW 9.0 mph14.5 kmh 29.81 in1009.5 mb 0.00 in0.0 mm 0.00 in/hr0.0 mm/hr 0.04 in1.0 mm
04:00 PM 54.2°F12.3°C 46.1°F7.8°C 74% 3.0 mph NNW4.8 kmh NNW 7.0 mph11.3 kmh 29.81 in1009.5 mb 0.00 in0.0 mm 0.00 in/hr0.0 mm/hr 0.04 in1.0 mm
04:15 PM 54.0°F12.2°C 45.6°F7.6°C 73% 3.0 mph NNW4.8 kmh NNW 9.0 mph14.5 kmh 29.81 in1009.5 mb 0.00 in0.0 mm 0.00 in/hr0.0 mm/hr 0.04 in1.0 mm
04:30 PM 54.9°F12.7°C 46.4°F8.0°C 73% 4.0 mph WNW6.4 kmh WNW 4.0 mph6.4 kmh 29.80 in1009.1 mb 0.00 in0.0 mm 0.00 in/hr0.0 mm/hr 0.04 in1.0 mm
04:45 PM 54.5°F12.5°C 45.7°F7.6°C 72% 3.0 mph WNW4.8 kmh WNW 7.0 mph11.3 kmh 29.81 in1009.5 mb 0.00 in0.0 mm 0.00 in/hr0.0 mm/hr 0.04 in1.0 mm
05:00 PM 54.4°F12.4°C 45.2°F7.3°C 71% 3.0 mph NNW4.8 kmh NNW 8.0 mph12.9 kmh 29.81 in1009.5 mb 0.00 in0.0 mm 0.00 in/hr0.0 mm/hr 0.04 in1.0 mm
05:15 PM 54.6°F12.6°C 45.4°F7.4°C 71% 2.0 mph NW3.2 kmh NW 9.0 mph14.5 kmh 29.81 in1009.5 mb 0.00 in0.0 mm 0.00 in/hr0.0 mm/hr 0.04 in1.0 mm
05:30 PM 55.2°F12.9°C 44.8°F7.1°C 68% 5.0 mph N8.0 kmh N 8.0 mph12.9 kmh 29.81 in1009.5 mb 0.00 in0.0 mm 0.00 in/hr0.0 mm/hr 0.04 in1.0 mm
05:45 PM 55.3°F12.9°C 45.3°F7.4°C 69% 3.0 mph N4.8 kmh N 8.0 mph12.9 kmh 29.81 in1009.5 mb 0.00 in0.0 mm 0.00 in/hr0.0 mm/hr 0.04 in1.0 mm
06:00 PM 55.4°F13.0°C 44.6°F7.0°C 67% 1.0 mph NNW1.6 kmh NNW 5.0 mph8.0 kmh 29.82 in1009.8 mb 0.00 in0.0 mm 0.00 in/hr0.0 mm/hr 0.04 in1.0 mm
06:15 PM 54.8°F12.7°C 44.5°F6.9°C 68% 1.0 mph NW1.6 kmh NW 7.0 mph11.3 kmh 29.82 in1009.8 mb 0.00 in0.0 mm 0.00 in/hr0.0 mm/hr 0.04 in1.0 mm
06:30 PM 54.8°F12.7°C 43.7°F6.5°C 66% 5.0 mph NW8.0 kmh NW 8.0 mph12.9 kmh 29.82 in1009.8 mb 0.00 in0.0 mm 0.00 in/hr0.0 mm/hr 0.04 in1.0 mm
06:45 PM 55.3°F12.9°C 43.4°F6.3°C 64% 5.0 mph NNW8.0 kmh NNW 6.0 mph9.7 kmh 29.81 in1009.5 mb 0.00 in0.0 mm 0.00 in/hr0.0 mm/hr 0.04 in1.0 mm
07:00 PM 55.0°F12.8°C 43.5°F6.4°C 65% 3.0 mph NNW4.8 kmh NNW 6.0 mph9.7 kmh 29.81 in1009.5 mb 0.00 in0.0 mm 0.00 in/hr0.0 mm/hr 0.04 in1.0 mm
07:15 PM 55.0°F12.8°C 43.5°F6.4°C 65% 3.0 mph NW4.8 kmh NW 5.0 mph8.0 kmh 29.81 in1009.5 mb 0.00 in0.0 mm 0.00 in/hr0.0 mm/hr 0.04 in1.0 mm
07:30 PM 55.5°F13.1°C 43.1°F6.2°C 63% 3.0 mph NW4.8 kmh NW 8.0 mph12.9 kmh 29.81 in1009.5 mb 0.00 in0.0 mm 0.00 in/hr0.0 mm/hr 0.04 in1.0 mm
07:45 PM 55.9°F13.3°C 43.5°F6.4°C 63% 6.0 mph NNW9.7 kmh NNW 6.0 mph9.7 kmh 29.81 in1009.5 mb 0.00 in0.0 mm 0.00 in/hr0.0 mm/hr 0.04 in1.0 mm
08:00 PM 55.6°F13.1°C 43.2°F6.2°C 63% 4.0 mph NW6.4 kmh NW 7.0 mph11.3 kmh 29.82 in1009.8 mb 0.00 in0.0 mm 0.00 in/hr0.0 mm/hr 0.04 in1.0 mm
08:15 PM 55.7°F13.2°C 44.1°F6.7°C 65% 2.0 mph N3.2 kmh N 3.0 mph4.8 kmh 29.82 in1009.8 mb 0.00 in0.0 mm 0.00 in/hr0.0 mm/hr 0.04 in1.0 mm
08:30 PM 54.6°F12.6°C 43.5°F6.4°C 66% Calm Calm 3.0 mph4.8 kmh 29.82 in1009.8 mb 0.00 in0.0 mm 0.00 in/hr0.0 mm/hr 0.04 in1.0 mm
08:45 PM 53.3°F11.8°C 43.4°F6.3°C 69% Calm Calm -- 29.83 in1010.2 mb 0.00 in0.0 mm 0.00 in/hr0.0 mm/hr 0.04 in1.0 mm
09:00 PM 52.8°F11.6°C 43.7°F6.5°C 71% Calm Calm -- 29.83 in1010.2 mb 0.00 in0.0 mm 0.00 in/hr0.0 mm/hr 0.04 in1.0 mm
09:15 PM 52.3°F11.3°C 44.6°F7.0°C 75% Calm Calm 1.0 mph1.6 kmh 29.83 in1010.2 mb 0.00 in0.0 mm 0.00 in/hr0.0 mm/hr 0.04 in1.0 mm
09:30 PM 51.5°F10.8°C 44.5°F6.9°C 77% Calm Calm 3.0 mph4.8 kmh 29.84 in1010.5 mb 0.00 in0.0 mm 0.00 in/hr0.0 mm/hr 0.04 in1.0 mm
09:45 PM 50.8°F10.4°C 43.9°F6.6°C 77% Calm Calm 1.0 mph1.6 kmh 29.85 in1010.8 mb 0.00 in0.0 mm 0.00 in/hr0.0 mm/hr 0.04 in1.0 mm
10:00 PM 50.5°F10.3°C 43.6°F6.4°C 77% 1.0 mph ENE1.6 kmh ENE 3.0 mph4.8 kmh 29.85 in1010.8 mb 0.00 in0.0 mm 0.00 in/hr0.0 mm/hr 0.04 in1.0 mm
10:15 PM 49.9°F9.9°C 44.0°F6.7°C 80% 1.0 mph ENE1.6 kmh ENE 2.0 mph3.2 kmh 29.86 in1011.2 mb 0.00 in0.0 mm 0.00 in/hr0.0 mm/hr 0.04 in1.0 mm
10:30 PM 49.8°F9.9°C 43.9°F6.6°C 80% 2.0 mph WSW3.2 kmh WSW 2.0 mph3.2 kmh 29.87 in1011.5 mb 0.00 in0.0 mm 0.00 in/hr0.0 mm/hr 0.04 in1.0 mm
10:45 PM 49.5°F9.7°C 43.3°F6.3°C 79% Calm Calm -- 29.87 in1011.5 mb 0.00 in0.0 mm 0.00 in/hr0.0 mm/hr 0.04 in1.0 mm
11:00 PM 48.8°F9.3°C 42.3°F5.7°C 78% 2.0 mph NNW3.2 kmh NNW 3.0 mph4.8 kmh 29.87 in1011.5 mb 0.00 in0.0 mm 0.00 in/hr0.0 mm/hr 0.04 in1.0 mm
11:15 PM 48.9°F9.4°C 38.1°F3.4°C 66% 2.0 mph NW3.2 kmh NW 4.0 mph6.4 kmh 29.87 in1011.5 mb 0.00 in0.0 mm 0.00 in/hr0.0 mm/hr 0.04 in1.0 mm
11:30 PM 48.3°F9.1°C 36.7°F2.6°C 64% 2.0 mph NW3.2 kmh NW 5.0 mph8.0 kmh 29.87 in1011.5 mb 0.00 in0.0 mm 0.00 in/hr0.0 mm/hr 0.04 in1.0 mm
11:45 PM 47.3°F8.5°C 35.8°F2.1°C 64% 1.0 mph NW1.6 kmh NW 2.0 mph3.2 kmh 29.87 in1011.5 mb 0.00 in0.0 mm 0.00 in/hr0.0 mm/hr 0.04 in1.0 mm